createdAt,value
2022-11-28T00:01:10.308Z,100338.81
2022-11-28T00:04:14.807Z,100336.94
2022-11-28T00:07:20.248Z,100338.72
2022-11-28T00:10:24.400Z,100338.75
2022-11-28T00:13:28.331Z,100333.66
2022-11-28T00:16:32.369Z,100328.13
2022-11-28T00:19:36.521Z,100331.13
2022-11-28T00:22:41.772Z,100335.19
2022-11-28T00:25:45.641Z,100332.13
2022-11-28T00:28:49.749Z,100326.03
2022-11-28T00:31:53.508Z,100332.44
2022-11-28T00:34:57.308Z,100332.25
2022-11-28T00:38:02.343Z,100334.81
2022-11-28T00:41:08.018Z,100332.44
2022-11-28T00:44:11.875Z,100327.59
2022-11-28T00:47:15.778Z,100327.25
2022-11-28T00:50:19.702Z,100316.56
2022-11-28T00:53:24.644Z,100309.97
2022-11-28T00:56:31.107Z,100317.44
2022-11-28T00:59:34.612Z,100314.81
2022-11-28T01:02:38.320Z,100314.47
2022-11-28T01:05:43.490Z,100313.50
2022-11-28T01:08:48.611Z,100307.56
2022-11-28T01:11:54.334Z,100311.22
2022-11-28T01:14:58.655Z,100306.03
2022-11-28T01:18:02.977Z,100307.53
2022-11-28T01:21:07.208Z,100313.13
2022-11-28T01:24:12.941Z,100309.34
2022-11-28T01:27:16.722Z,100300.75
2022-11-28T01:30:20.780Z,100306.31
2022-11-28T01:33:24.467Z,100307.53
2022-11-28T01:36:28.850Z,100299.50
2022-11-28T01:39:34.067Z,100301.38
2022-11-28T01:42:37.897Z,100302.47
2022-11-28T01:45:41.567Z,100300.44
2022-11-28T01:48:45.149Z,100296.09
2022-11-28T01:51:52.168Z,100294.72
2022-11-28T01:55:01.560Z,100297.19
2022-11-28T01:58:06.066Z,100288.84
2022-11-28T02:01:10.872Z,100286.44
2022-11-28T02:04:15.441Z,100287.25
2022-11-28T02:07:20.122Z,100285.72
2022-11-28T02:10:29.085Z,100283.03
2022-11-28T02:13:42.191Z,100286.88
2022-11-28T02:16:56.867Z,100284.53
2022-11-28T02:20:33.588Z,100281.06
2022-11-28T02:24:04.146Z,100278.56
2022-11-28T02:27:42.872Z,100276.06
2022-11-28T02:30:59.849Z,100272.53
2022-11-28T02:34:09.267Z,100266.97
2022-11-28T02:37:22.631Z,100273.13
2022-11-28T02:40:29.736Z,100267.28
2022-11-28T02:43:42.033Z,100276.00
2022-11-28T02:46:54.050Z,100276.75
2022-11-28T02:50:07.621Z,100279.50
2022-11-28T02:53:15.563Z,100276.63
2022-11-28T02:56:19.532Z,100278.94
2022-11-28T02:59:46.327Z,100271.47
2022-11-28T03:02:54.505Z,100278.06
2022-11-28T03:06:07.247Z,100273.31
2022-11-28T03:09:33.420Z,100268.72
2022-11-28T03:12:50.865Z,100278.44
2022-11-28T03:16:02.989Z,100280.66
2022-11-28T03:19:15.994Z,100275.25
2022-11-28T03:22:33.417Z,100274.56
2022-11-28T03:25:43.080Z,100275.63
2022-11-28T03:28:53.183Z,100273.03
2022-11-28T03:32:01.908Z,100275.16
2022-11-28T03:35:10.029Z,100270.53
2022-11-28T03:38:22.551Z,100273.91
2022-11-28T03:41:30.977Z,100282.28
2022-11-28T03:44:41.877Z,100275.44
2022-11-28T03:47:49.280Z,100278.06
2022-11-28T03:50:59.885Z,100278.13
2022-11-28T03:54:09.916Z,100276.16
2022-11-28T03:57:21.889Z,100276.34
2022-11-28T04:00:26.121Z,100280.38
2022-11-28T04:03:40.358Z,100278.38
2022-11-28T04:06:54.847Z,100285.22
2022-11-28T04:10:04.363Z,100282.34
2022-11-28T04:13:17.507Z,100278.09
2022-11-28T04:16:27.031Z,100286.66
2022-11-28T04:19:36.613Z,100296.59
2022-11-28T04:22:46.128Z,100285.59
2022-11-28T04:25:54.441Z,100294.19
2022-11-28T04:29:01.101Z,100299.75
2022-11-28T04:32:07.567Z,100300.69
2022-11-28T04:35:16.477Z,100295.41
2022-11-28T04:38:21.223Z,100305.34
2022-11-28T04:41:31.332Z,100304.56
2022-11-28T04:44:39.476Z,100298.81
2022-11-28T04:47:44.762Z,100303.69
2022-11-28T04:50:54.624Z,100296.66
2022-11-28T04:54:03.937Z,100304.34
2022-11-28T04:57:16.283Z,100311.19
2022-11-28T05:00:22.057Z,100312.66
2022-11-28T05:03:29.290Z,100309.66
2022-11-28T05:06:35.078Z,100305.44
2022-11-28T05:09:38.958Z,100310.69
2022-11-28T05:12:44.336Z,100315.94
2022-11-28T05:15:48.239Z,100319.16
2022-11-28T05:18:52.350Z,100312.81
2022-11-28T05:21:56.071Z,100313.41
2022-11-28T05:25:00.518Z,100306.41
2022-11-28T05:28:05.983Z,100306.41
2022-11-28T05:31:09.653Z,100301.44
2022-11-28T05:34:13.301Z,100307.34
2022-11-28T05:37:17.701Z,100297.44
2022-11-28T05:40:21.519Z,100295.28
2022-11-28T05:43:26.906Z,100304.75
2022-11-28T05:46:31.387Z,100300.94
2022-11-28T05:49:35.365Z,100307.31
2022-11-28T05:52:39.109Z,100307.13
2022-11-28T05:55:42.948Z,100306.28
2022-11-28T05:58:48.121Z,100300.75
2022-11-28T06:01:51.893Z,100308.44
2022-11-28T06:04:55.596Z,100308.16
2022-11-28T06:07:59.445Z,100307.00
2022-11-28T06:11:03.307Z,100317.19
2022-11-28T06:14:08.397Z,100311.09
2022-11-28T06:17:12.177Z,100322.53
2022-11-28T06:20:16.061Z,100325.34
2022-11-28T06:23:19.887Z,100324.25
2022-11-28T06:26:25.098Z,100324.25
2022-11-28T06:29:30.273Z,100324.94
2022-11-28T06:32:34.306Z,100321.88
2022-11-28T06:35:38.070Z,100317.66
2022-11-28T06:38:42.378Z,100321.75
2022-11-28T06:41:46.550Z,100317.91
2022-11-28T06:44:51.901Z,100324.34
2022-11-28T06:47:55.480Z,100320.28
2022-11-28T06:51:04.467Z,100327.84
2022-11-28T06:54:08.411Z,100320.78
2022-11-28T06:57:12.520Z,100318.06
2022-11-28T07:00:18.783Z,100317.91
2022-11-28T07:03:22.621Z,100322.97
2022-11-28T07:06:28.308Z,100316.34
2022-11-28T07:09:32.148Z,100326.09
2022-11-28T07:12:35.860Z,100317.59
2022-11-28T07:15:41.053Z,100313.63
2022-11-28T07:18:45.099Z,100318.16
2022-11-28T07:21:49.208Z,100315.22
2022-11-28T07:24:52.988Z,100313.44
2022-11-28T07:27:56.668Z,100309.84
2022-11-28T07:31:04.339Z,100308.53
2022-11-28T07:34:08.211Z,100306.41
2022-11-28T07:37:11.962Z,100312.63
2022-11-28T07:40:18.720Z,100299.56
2022-11-28T07:43:22.435Z,100299.66
2022-11-28T07:46:29.037Z,100303.19
2022-11-28T07:49:32.950Z,100302.38
2022-11-28T07:52:36.657Z,100301.94
2022-11-28T07:55:40.431Z,100296.53
2022-11-28T07:58:45.570Z,100297.22
2022-11-28T08:01:50.888Z,100299.09
2022-11-28T08:04:55.985Z,100300.91
2022-11-28T08:07:59.831Z,100303.94
2022-11-28T08:11:06.758Z,100296.22
2022-11-28T08:14:10.728Z,100296.03
2022-11-28T08:17:15.951Z,100295.25
2022-11-28T08:20:19.823Z,100285.41
2022-11-28T08:23:23.663Z,100291.94
2022-11-28T08:26:30.639Z,100290.00
2022-11-28T08:29:34.861Z,100289.25
2022-11-28T08:32:42.321Z,100292.97
2022-11-28T08:35:45.998Z,100291.16
2022-11-28T08:39:09.413Z,100285.75
2022-11-28T08:42:14.389Z,100289.19
2022-11-28T08:45:20.742Z,100287.50
2022-11-28T08:48:26.219Z,100282.84
2022-11-28T08:51:31.171Z,100283.81
2022-11-28T08:54:34.981Z,100276.94
2022-11-28T08:57:44.211Z,100281.53
2022-11-28T09:00:54.130Z,100271.59
2022-11-28T09:03:59.494Z,100264.19
2022-11-28T09:07:03.427Z,100264.53
2022-11-28T09:10:08.548Z,100256.88
2022-11-28T09:13:14.680Z,100256.13
2022-11-28T09:16:18.687Z,100250.09
2022-11-28T09:19:24.117Z,100246.09
2022-11-28T09:22:30.147Z,100246.75
2022-11-28T09:25:36.757Z,100245.97
2022-11-28T09:28:40.881Z,100242.25
2022-11-28T09:31:47.477Z,100238.09
2022-11-28T09:34:52.831Z,100242.81
2022-11-28T09:37:56.612Z,100231.91
2022-11-28T09:41:00.457Z,100233.00
2022-11-28T09:44:11.798Z,100227.38
2022-11-28T09:47:21.610Z,100219.97
2022-11-28T09:50:29.688Z,100207.13
2022-11-28T09:53:42.236Z,100204.91
2022-11-28T09:56:48.282Z,100206.75
2022-11-28T09:59:52.021Z,100200.84
2022-11-28T10:03:20.692Z,100204.44
2022-11-28T10:06:32.721Z,100201.00
2022-11-28T10:09:44.943Z,100192.06
2022-11-28T10:12:58.629Z,100192.94
2022-11-28T10:16:10.440Z,100193.53
2022-11-28T10:19:46.105Z,100189.06
2022-11-28T10:22:47.838Z,100178.91
2022-11-28T10:25:55.481Z,100178.38
2022-11-28T10:29:03.272Z,100175.38
2022-11-28T10:32:08.042Z,100176.69
2022-11-28T10:35:28.340Z,100171.38
2022-11-28T10:38:37.463Z,100163.34
2022-11-28T10:42:08.682Z,100156.97
2022-11-28T10:45:23.628Z,100160.03
2022-11-28T10:48:42.455Z,100158.00
2022-11-28T10:51:55.286Z,100156.34
2022-11-28T10:55:22.781Z,100149.47
2022-11-28T10:58:33.526Z,100146.50
2022-11-28T11:01:40.162Z,100134.69
2022-11-28T11:04:44.103Z,100134.91
2022-11-28T11:07:52.166Z,100131.53
2022-11-28T11:11:03.433Z,100136.72
2022-11-28T11:14:09.331Z,100127.84
2022-11-28T11:17:32.616Z,100133.41
2022-11-28T11:20:40.732Z,100120.28
2022-11-28T11:23:44.993Z,100122.06
2022-11-28T11:26:51.215Z,100120.16
2022-11-28T11:29:55.707Z,100125.09
2022-11-28T11:33:02.275Z,100119.06
2022-11-28T11:36:26.498Z,100108.13
2022-11-28T11:39:30.312Z,100096.19
2022-11-28T11:42:35.488Z,100093.91
2022-11-28T11:45:39.890Z,100098.25
2022-11-28T11:48:45.728Z,100100.72
2022-11-28T11:51:58.061Z,100104.59
2022-11-28T11:55:05.501Z,100104.25
2022-11-28T11:58:13.657Z,100101.81
2022-11-28T12:01:24.197Z,100102.72
2022-11-28T12:04:52.629Z,100100.13
2022-11-28T12:08:01.441Z,100107.03
2022-11-28T12:11:16.880Z,100104.88
2022-11-28T12:14:33.019Z,100106.22
2022-11-28T12:17:51.460Z,100095.28
2022-11-28T12:21:15.263Z,100098.84
2022-11-28T12:24:29.990Z,100095.13
2022-11-28T12:27:52.782Z,100094.44
2022-11-28T12:31:13.507Z,100102.28
2022-11-28T12:34:30.011Z,100104.53
2022-11-28T12:38:10.351Z,100110.31
2022-11-28T12:41:32.646Z,100105.25
2022-11-28T12:44:51.901Z,100105.25
2022-11-28T12:48:09.511Z,100104.53
2022-11-28T12:51:24.349Z,100104.06
2022-11-28T12:54:50.368Z,100097.91
2022-11-28T12:58:05.452Z,100102.66
2022-11-28T13:01:32.551Z,100098.72
2022-11-28T13:05:12.684Z,100107.13
2022-11-28T13:08:31.464Z,100103.84
2022-11-28T13:11:51.242Z,100106.38
2022-11-28T13:14:59.130Z,100112.34
2022-11-28T13:18:12.861Z,100114.00
2022-11-28T13:21:29.312Z,100114.59
2022-11-28T13:24:39.748Z,100116.00
2022-11-28T13:27:50.675Z,100111.03
2022-11-28T13:30:59.052Z,100118.63
2022-11-28T13:34:03.182Z,100110.09
2022-11-28T13:40:43.144Z,100102.53
2022-11-28T13:43:53.877Z,100100.75
2022-11-28T13:46:57.696Z,100092.97
2022-11-28T13:50:39.051Z,100088.00
2022-11-28T13:53:45.659Z,100094.84
2022-11-28T13:57:06.563Z,100094.84
2022-11-28T14:00:23.930Z,100097.47
2022-11-28T14:03:28.006Z,100088.47
2022-11-28T14:06:46.083Z,100085.38
2022-11-28T14:10:02.409Z,100087.38
2022-11-28T14:13:32.157Z,100085.63
2022-11-28T14:16:52.186Z,100086.78
2022-11-28T14:20:12.386Z,100089.75
2022-11-28T14:23:27.887Z,100094.38
2022-11-28T14:26:35.790Z,100093.88
2022-11-28T14:29:43.921Z,100104.78
2022-11-28T14:32:48.607Z,100095.53
2022-11-28T14:36:35.077Z,100098.41
2022-11-28T14:39:41.131Z,100096.75
2022-11-28T14:43:02.023Z,100092.97
2022-11-28T14:46:28.472Z,100094.38
2022-11-28T14:49:32.522Z,100094.38
2022-11-28T14:52:40.736Z,100086.34
2022-11-28T14:55:46.277Z,100085.16
2022-11-28T14:58:53.743Z,100095.09
2022-11-28T15:02:07.503Z,100094.88
2022-11-28T15:05:40.433Z,100087.63
2022-11-28T15:08:58.010Z,100081.59
2022-11-28T15:12:12.341Z,100086.22
2022-11-28T15:15:19.467Z,100085.75
2022-11-28T15:18:26.608Z,100083.00
2022-11-28T15:21:33.422Z,100081.72
2022-11-28T15:24:39.501Z,100074.50
2022-11-28T15:27:43.251Z,100087.88
2022-11-28T15:30:51.664Z,100081.00
2022-11-28T15:33:55.488Z,100081.69
2022-11-28T15:37:02.008Z,100083.25
2022-11-28T15:40:08.110Z,100081.25
2022-11-28T15:43:15.741Z,100089.50
2022-11-28T15:46:25.476Z,100081.59
2022-11-28T15:49:32.362Z,100089.41
2022-11-28T15:52:36.486Z,100097.00
2022-11-28T15:55:40.317Z,100095.69
2022-11-28T15:58:47.911Z,100091.31
2022-11-28T16:01:59.188Z,100095.31
2022-11-28T16:05:09.067Z,100092.72
2022-11-28T16:08:23.849Z,100083.59
2022-11-28T16:11:30.858Z,100087.78
2022-11-28T16:14:37.360Z,100086.31
2022-11-28T16:17:43.103Z,100085.16
2022-11-28T16:20:47.837Z,100087.88
2022-11-28T16:23:51.577Z,100093.91
2022-11-28T16:26:58.747Z,100090.38
2022-11-28T16:30:03.442Z,100081.97
2022-11-28T16:33:42.382Z,100085.88
2022-11-28T16:36:49.586Z,100085.16
2022-11-28T16:40:09.010Z,100087.63
2022-11-28T16:43:22.730Z,100088.22
2022-11-28T16:46:28.695Z,100093.91
2022-11-28T16:49:37.208Z,100092.72
2022-11-28T16:52:47.107Z,100086.69
2022-11-28T16:55:51.175Z,100096.25
2022-11-28T16:58:56.921Z,100087.19
2022-11-28T17:02:00.649Z,100089.41
2022-11-28T17:05:06.229Z,100096.28
2022-11-28T17:08:10.040Z,100094.97
2022-11-28T17:11:15.637Z,100092.59
2022-11-28T17:14:19.400Z,100093.19
2022-11-28T17:17:24.670Z,100091.53
2022-11-28T17:20:29.918Z,100094.25
2022-11-28T17:23:33.676Z,100089.41
2022-11-28T17:26:37.349Z,100082.91
2022-11-28T17:29:41.698Z,100088.47
2022-11-28T17:32:47.357Z,100087.97
2022-11-28T17:35:54.827Z,100084.69
2022-11-28T17:39:03.736Z,100084.19
2022-11-28T17:42:09.019Z,100083.16
2022-11-28T17:45:16.454Z,100074.97
2022-11-28T17:48:20.576Z,100076.28
2022-11-28T17:51:26.344Z,100077.81
2022-11-28T17:54:30.051Z,100076.16
2022-11-28T17:57:34.216Z,100073.66
2022-11-28T18:00:38.151Z,100076.06
2022-11-28T18:03:42.400Z,100073.56
2022-11-28T18:06:48.882Z,100076.66
2022-11-28T18:09:53.130Z,100071.19
2022-11-28T18:12:56.947Z,100056.06
2022-11-28T18:16:02.980Z,100050.41
2022-11-28T18:19:07.540Z,100065.19
2022-11-28T18:22:12.716Z,100066.94
2022-11-28T18:25:16.587Z,100064.22
2022-11-28T18:28:21.307Z,100064.56
2022-11-28T18:31:27.452Z,100059.84
2022-11-28T18:34:31.368Z,100069.31
2022-11-28T18:37:37.356Z,100059.13
2022-11-28T18:40:41.400Z,100060.44
2022-11-28T18:43:45.488Z,100064.09
2022-11-28T18:46:49.550Z,100061.50
2022-11-28T18:49:53.351Z,100062.38
2022-11-28T18:52:58.513Z,100062.81
2022-11-28T18:56:04.130Z,100059.56
2022-11-28T18:59:07.988Z,100051.78
2022-11-28T19:02:16.705Z,100060.53
2022-11-28T19:05:20.708Z,100046.72
2022-11-28T19:08:26.170Z,100052.66
2022-11-28T19:11:30.822Z,100056.66
2022-11-28T19:14:34.530Z,100056.06
2022-11-28T19:17:38.786Z,100061.63
2022-11-28T19:20:43.731Z,100072.13
2022-11-28T19:23:49.167Z,100069.75
2022-11-28T19:26:53.001Z,100075.19
2022-11-28T19:29:56.669Z,100063.88
2022-11-28T19:33:00.560Z,100060.56
2022-11-28T19:36:04.730Z,100059.38
2022-11-28T19:39:10.097Z,100057.72
2022-11-28T19:42:13.915Z,100068.38
2022-11-28T19:45:17.801Z,100068.00
2022-11-28T19:48:21.521Z,100062.06
2022-11-28T19:51:25.297Z,100066.22
2022-11-28T19:54:30.620Z,100063.88
2022-11-28T19:57:37.418Z,100067.97
2022-11-28T20:00:41.529Z,100060.66
2022-11-28T20:03:48.056Z,100068.34
2022-11-28T20:06:51.807Z,100071.50
2022-11-28T20:09:57.075Z,100073.19
2022-11-28T20:13:00.836Z,100077.44
2022-11-28T20:16:06.385Z,100075.78
2022-11-28T20:19:11.433Z,100075.97
2022-11-28T20:22:15.556Z,100068.53
2022-11-28T20:25:21.218Z,100066.59
2022-11-28T20:28:27.231Z,100067.38
2022-11-28T20:31:34.036Z,100075.56
2022-11-28T20:34:37.799Z,100074.81
2022-11-28T20:37:41.620Z,100080.84
2022-11-28T20:40:46.669Z,100078.97
2022-11-28T20:43:50.587Z,100085.00
2022-11-28T20:46:54.548Z,100076.50
2022-11-28T20:49:58.276Z,100081.31
2022-11-28T20:53:02.056Z,100080.97
2022-11-28T20:56:10.299Z,100075.53
2022-11-28T20:59:16.500Z,100077.28
2022-11-28T21:02:20.317Z,100079.44
2022-11-28T21:05:24.055Z,100067.16
2022-11-28T21:08:30.562Z,100069.25
2022-11-28T21:11:57.611Z,100066.31
2022-11-28T21:14:59.549Z,100069.41
2022-11-28T21:18:03.958Z,100063.53
2022-11-28T21:21:09.676Z,100070.22
2022-11-28T21:24:14.789Z,100055.69
2022-11-28T21:27:19.956Z,100055.69
2022-11-28T21:30:23.689Z,100056.53
2022-11-28T21:33:27.373Z,100058.78
2022-11-28T21:36:32.027Z,100055.34
2022-11-28T21:39:35.876Z,100055.59
2022-11-28T21:42:44.975Z,100061.00
2022-11-28T21:45:48.765Z,100059.00
2022-11-28T21:48:52.617Z,100054.88
2022-11-28T21:51:56.470Z,100049.66
2022-11-28T21:55:01.213Z,100057.94
2022-11-28T21:58:07.045Z,100049.81
2022-11-28T22:01:12.707Z,100048.97
2022-11-28T22:04:16.531Z,100044.50
2022-11-28T22:07:20.449Z,100041.63
2022-11-28T22:10:24.447Z,100041.75
2022-11-28T22:13:29.912Z,100039.72
2022-11-28T22:16:33.892Z,100031.94
2022-11-28T22:19:37.635Z,100036.94
2022-11-28T22:22:41.456Z,100035.03
2022-11-28T22:25:52.500Z,100030.72
2022-11-28T22:28:58.996Z,100024.25
2022-11-28T22:32:02.967Z,100026.50
2022-11-28T22:35:09.390Z,100021.44
2022-11-28T22:38:13.225Z,100024.16
2022-11-28T22:41:26.406Z,100024.88
2022-11-28T22:44:34.118Z,100018.81
2022-11-28T22:47:38.479Z,100024.88
2022-11-28T22:50:42.206Z,100020.13
2022-11-28T22:53:46.249Z,100008.78
2022-11-28T22:56:50.670Z,100003.25
2022-11-28T22:59:56.267Z,99994.25
2022-11-28T23:03:00.479Z,100003.47
2022-11-28T23:06:06.810Z,99992.25
2022-11-28T23:09:11.617Z,99989.16
2022-11-28T23:12:15.859Z,99987.84
2022-11-28T23:15:21.223Z,99989.75
2022-11-28T23:18:24.924Z,99990.19
2022-11-28T23:21:32.485Z,99990.56
2022-11-28T23:24:36.284Z,99987.03
2022-11-28T23:27:40.114Z,99988.47
2022-11-28T23:30:46.606Z,99973.66
2022-11-28T23:33:50.584Z,99972.38
2022-11-28T23:36:54.957Z,99975.22
2022-11-28T23:39:58.696Z,99970.47
2022-11-28T23:43:02.337Z,99966.44
2022-11-28T23:46:09.095Z,99967.91
2022-11-28T23:49:13.598Z,99971.94
2022-11-28T23:52:17.397Z,99970.63
2022-11-28T23:55:21.096Z,99965.63
2022-11-28T23:58:24.790Z,99966.81
